aviador You're here:

SANT Decoded Metar

TUCUMAN in ARGENTINA
Report Time2018-06-17 21:00:00
UTC Time2018-06-17 21:44:57
Flight Rules mvfr MVFR
Wind230° at 05 kt
W.Decomp.*RWY 19: 3.5 kt HW 3.6 kt RCW
W.Rank230° ranks 5
Current wind is below 230° avg. (5.9)
Visibility6000 m
Phenomena:N/A
Clouds:N/A
Expected CloudBase > 5,600 ft AGL from Temp-Dew spread
CeilingNone
Temp20°C (ISA +8)
Dew Point06°C (40% RH)
AAT17.3°C
QNH1023 hPa
Density Alt2,198 ft
Elevation1,476 ft
Report Wrong Elevation
Raw Report
METAR SANT 172100Z 23005KT 6000 NSC 20/06 Q1023=

Extra information for SANT:More info

Metar Taf Metar & Taf Last 4 Metars F.Rules Stats Wind Profile Meteogram Temp Stats Airport Information Weather charts Add Link Nearby VenuesMetar ALERT Operation Metar Decoded Social comments